MMSD/SJD METAR and TAF weather

Enter ICAO airport designator
Station Type Date Time Source
MMSD METAR 2019/04/19 04:56 UTC NOAA

MMSD 190456Z 26003KT 12SM BKN250 19/09 A2992 RMK 8/008


Station Type Date Time Source
MMSD Decoded METAR 2019/04/19 04:56 UTC NOAA

San Jose Del Cabo , Mexico (MMSD) 23-09N 109-42W
Apr 19, 2019 - 12:56 AM EDT / 2019.04.19 0456 UTC
Wind: from the W (260 degrees) at 3 MPH (3 KT):0
Visibility: 12 mile(s):0
Sky conditions: mostly cloudy
Temperature: 66 F (19 C)
Dew Point: 48 F (9 C)
Relative Humidity: 52%
Pressure (altimeter): 29.92 in. Hg (1013 hPa)
ob: MMSD 190456Z 26003KT 12SM BKN250 19/09 A2992 RMK 8/008
cycle: 5

Station Type Date Time Source
MMSD TAF 2019/04/19 06:55 UTC NOAA

TAF MMSD 190448Z 1906/2006 30005KT P6SM BKN250
FM191800 16010KT P6SM BKN250
FM200200 30005KT P6SM OVC250

Example: see airport list